sensor_id;sensor_type;location;lat;lon;timestamp;pressure;altitude;pressure_sealevel;temperature;humidity
20119;BME280;10220;42.716;23.306;2023-01-29T00:00:50;95401.03;;;0.43;100.00
20119;BME280;10220;42.716;23.306;2023-01-29T00:03:15;95399.41;;;0.42;100.00
20119;BME280;10220;42.716;23.306;2023-01-29T00:05:41;95422.75;;;0.38;100.00
20119;BME280;10220;42.716;23.306;2023-01-29T00:08:06;95337.97;;;-0.01;100.00
20119;BME280;10220;42.716;23.306;2023-01-29T00:10:32;95425.31;;;0.38;100.00
20119;BME280;10220;42.716;23.306;2023-01-29T00:12:57;95418.84;;;0.43;100.00
20119;BME280;10220;42.716;23.306;2023-01-29T00:15:22;95423.69;;;0.37;100.00
20119;BME280;10220;42.716;23.306;2023-01-29T00:17:48;95349.19;;;0.06;100.00
20119;BME280;10220;42.716;23.306;2023-01-29T00:20:13;95419.66;;;0.44;100.00
20119;BME280;10220;42.716;23.306;2023-01-29T00:22:39;95419.94;;;0.31;100.00
20119;BME280;10220;42.716;23.306;2023-01-29T00:25:05;95429.03;;;0.43;100.00
20119;BME280;10220;42.716;23.306;2023-01-29T00:27:31;95424.75;;;0.44;100.00
20119;BME280;10220;42.716;23.306;2023-01-29T00:29:56;95433.34;;;0.33;100.00
20119;BME280;10220;42.716;23.306;2023-01-29T00:32:36;95427.69;;;0.30;100.00
20119;BME280;10220;42.716;23.306;2023-01-29T00:35:02;95411.63;;;0.29;100.00
20119;BME280;10220;42.716;23.306;2023-01-29T00:37:27;95422.34;;;0.42;100.00
20119;BME280;10220;42.716;23.306;2023-01-29T00:39:53;95427.31;;;0.34;100.00
20119;BME280;10220;42.716;23.306;2023-01-29T00:42:18;95362.44;;;0.19;100.00
20119;BME280;10220;42.716;23.306;2023-01-29T00:45:02;95432.25;;;0.45;100.00
20119;BME280;10220;42.716;23.306;2023-01-29T00:47:28;95420.22;;;0.38;100.00
20119;BME280;10220;42.716;23.306;2023-01-29T00:49:58;95427.56;;;0.41;100.00
20119;BME280;10220;42.716;23.306;2023-01-29T00:52:25;95361.28;;;0.04;100.00
20119;BME280;10220;42.716;23.306;2023-01-29T00:54:51;95395.03;;;0.16;100.00
20119;BME280;10220;42.716;23.306;2023-01-29T00:57:17;95423.16;;;0.33;100.00
20119;BME280;10220;42.716;23.306;2023-01-29T00:59:42;95433.47;;;0.32;100.00
20119;BME280;10220;42.716;23.306;2023-01-29T01:02:08;95354.97;;;-0.10;100.00
20119;BME280;10220;42.716;23.306;2023-01-29T01:04:52;95429.03;;;0.24;100.00
20119;BME280;10220;42.716;23.306;2023-01-29T01:07:18;95422.88;;;0.27;100.00
20119;BME280;10220;42.716;23.306;2023-01-29T01:09:43;95405.88;;;0.18;100.00
20119;BME280;10220;42.716;23.306;2023-01-29T01:12:27;95367.69;;;0.08;100.00
20119;BME280;10220;42.716;23.306;2023-01-29T01:14:53;95422.88;;;0.36;100.00
20119;BME280;10220;42.716;23.306;2023-01-29T01:20:03;95436.16;;;0.30;100.00
20119;BME280;10220;42.716;23.306;2023-01-29T01:22:29;95366.88;;;-0.02;100.00
20119;BME280;10220;42.716;23.306;2023-01-29T01:24:56;95419.00;;;0.23;100.00
20119;BME280;10220;42.716;23.306;2023-01-29T01:27:21;95413.25;;;0.30;100.00
20119;BME280;10220;42.716;23.306;2023-01-29T01:29:47;95357.53;;;-0.01;100.00
20119;BME280;10220;42.716;23.306;2023-01-29T01:32:12;95415.88;;;0.48;100.00
20119;BME280;10220;42.716;23.306;2023-01-29T01:34:38;95419.50;;;0.45;100.00
20119;BME280;10220;42.716;23.306;2023-01-29T01:37:04;95399.69;;;0.30;100.00
20119;BME280;10220;42.716;23.306;2023-01-29T01:39:29;95417.78;;;0.36;100.00
20119;BME280;10220;42.716;23.306;2023-01-29T01:41:55;95409.19;;;0.47;100.00
20119;BME280;10220;42.716;23.306;2023-01-29T01:44:52;95410.97;;;0.37;100.00
20119;BME280;10220;42.716;23.306;2023-01-29T01:47:23;95378.81;;;-0.02;100.00
20119;BME280;10220;42.716;23.306;2023-01-29T01:49:52;95422.34;;;0.33;100.00
20119;BME280;10220;42.716;23.306;2023-01-29T01:52:18;95382.31;;;0.16;100.00
20119;BME280;10220;42.716;23.306;2023-01-29T01:54:44;95423.16;;;0.33;100.00
20119;BME280;10220;42.716;23.306;2023-01-29T01:57:14;95427.03;;;0.28;100.00
20119;BME280;10220;42.716;23.306;2023-01-29T01:59:49;95430.00;;;0.33;100.00
20119;BME280;10220;42.716;23.306;2023-01-29T02:02:16;95437.50;;;0.34;100.00
20119;BME280;10220;42.716;23.306;2023-01-29T02:05:01;95376.28;;;-0.02;100.00
20119;BME280;10220;42.716;23.306;2023-01-29T02:07:47;95372.25;;;0.05;100.00
20119;BME280;10220;42.716;23.306;2023-01-29T02:10:39;95402.38;;;0.28;100.00
20119;BME280;10220;42.716;23.306;2023-01-29T02:13:06;95382.03;;;-0.09;100.00
20119;BME280;10220;42.716;23.306;2023-01-29T02:15:32;95423.16;;;0.24;100.00
20119;BME280;10220;42.716;23.306;2023-01-29T02:17:57;95421.28;;;0.26;100.00
20119;BME280;10220;42.716;23.306;2023-01-29T02:20:26;95432.25;;;0.36;100.00
20119;BME280;10220;42.716;23.306;2023-01-29T02:31:04;95425.28;;;0.28;100.00
20119;BME280;10220;42.716;23.306;2023-01-29T02:33:58;95434.00;;;0.35;100.00
20119;BME280;10220;42.716;23.306;2023-01-29T02:36:40;95452.22;;;0.31;100.00
20119;BME280;10220;42.716;23.306;2023-01-29T02:39:13;95434.66;;;0.47;100.00
20119;BME280;10220;42.716;23.306;2023-01-29T02:42:06;95437.19;;;0.47;100.00
20119;BME280;10220;42.716;23.306;2023-01-29T02:44:53;95433.84;;;0.56;100.00
20119;BME280;10220;42.716;23.306;2023-01-29T02:47:27;95430.88;;;0.51;100.00
20119;BME280;10220;42.716;23.306;2023-01-29T02:53:01;95442.97;;;0.49;100.00
20119;BME280;10220;42.716;23.306;2023-01-29T02:55:46;95451.00;;;0.44;100.00
20119;BME280;10220;42.716;23.306;2023-01-29T02:58:24;95395.28;;;0.22;100.00
20119;BME280;10220;42.716;23.306;2023-01-29T03:00:54;95456.09;;;0.44;100.00
20119;BME280;10220;42.716;23.306;2023-01-29T03:03:25;95397.16;;;0.20;100.00
20119;BME280;10220;42.716;23.306;2023-01-29T03:06:01;95391.03;;;0.04;100.00
20119;BME280;10220;42.716;23.306;2023-01-29T03:08:35;95417.66;;;0.19;100.00
20119;BME280;10220;42.716;23.306;2023-01-29T03:11:09;95442.31;;;0.37;100.00
20119;BME280;10220;42.716;23.306;2023-01-29T03:14:07;95445.91;;;0.35;100.00
20119;BME280;10220;42.716;23.306;2023-01-29T03:19:19;95431.75;;;0.04;100.00
20119;BME280;10220;42.716;23.306;2023-01-29T03:21:51;95464.81;;;0.32;100.00
20119;BME280;10220;42.716;23.306;2023-01-29T03:27:30;95419.69;;;0.25;100.00
20119;BME280;10220;42.716;23.306;2023-01-29T03:30:16;95440.16;;;0.23;100.00
20119;BME280;10220;42.716;23.306;2023-01-29T03:33:05;95462.53;;;0.57;100.00
20119;BME280;10220;42.716;23.306;2023-01-29T03:35:36;95459.16;;;0.57;100.00
20119;BME280;10220;42.716;23.306;2023-01-29T03:38:06;95465.47;;;0.53;100.00
20119;BME280;10220;42.716;23.306;2023-01-29T03:40:44;95418.88;;;0.24;100.00
20119;BME280;10220;42.716;23.306;2023-01-29T03:48:34;95455.88;;;0.38;100.00
20119;BME280;10220;42.716;23.306;2023-01-29T03:57:01;95443.78;;;0.40;100.00
20119;BME280;10220;42.716;23.306;2023-01-29T04:02:29;95443.50;;;0.33;100.00
20119;BME280;10220;42.716;23.306;2023-01-29T04:05:00;95437.50;;;0.34;100.00
20119;BME280;10220;42.716;23.306;2023-01-29T04:07:28;95458.78;;;0.43;100.00
20119;BME280;10220;42.716;23.306;2023-01-29T04:10:02;95461.34;;;0.33;100.00
20119;BME280;10220;42.716;23.306;2023-01-29T04:12:41;95463.34;;;0.30;100.00
20119;BME280;10220;42.716;23.306;2023-01-29T04:15:10;95464.16;;;0.30;100.00
20119;BME280;10220;42.716;23.306;2023-01-29T04:17:40;95474.34;;;0.30;100.00
20119;BME280;10220;42.716;23.306;2023-01-29T04:20:08;95463.34;;;0.20;100.00
20119;BME280;10220;42.716;23.306;2023-01-29T04:22:37;95469.91;;;0.32;100.00
20119;BME280;10220;42.716;23.306;2023-01-29T04:25:09;95439.91;;;0.07;100.00
20119;BME280;10220;42.716;23.306;2023-01-29T04:28:20;95462.00;;;0.26;100.00
20119;BME280;10220;42.716;23.306;2023-01-29T04:30:57;95392.63;;;-0.23;100.00
20119;BME280;10220;42.716;23.306;2023-01-29T04:41:54;95467.78;;;0.18;100.00
20119;BME280;10220;42.716;23.306;2023-01-29T04:44:39;95470.03;;;0.40;100.00
20119;BME280;10220;42.716;23.306;2023-01-29T04:47:29;95465.50;;;0.34;100.00
20119;BME280;10220;42.716;23.306;2023-01-29T04:52:52;95484.25;;;0.24;100.00
20119;BME280;10220;42.716;23.306;2023-01-29T04:55:34;95468.19;;;0.33;100.00
20119;BME280;10220;42.716;23.306;2023-01-29T04:58:13;95442.72;;;0.04;100.00
20119;BME280;10220;42.716;23.306;2023-01-29T05:00:43;95480.78;;;0.25;100.00
20119;BME280;10220;42.716;23.306;2023-01-29T05:03:13;95453.56;;;0.25;100.00
20119;BME280;10220;42.716;23.306;2023-01-29T05:05:41;95454.22;;;0.18;100.00
20119;BME280;10220;42.716;23.306;2023-01-29T05:08:10;95493.38;;;0.36;100.00
20119;BME280;10220;42.716;23.306;2023-01-29T05:10:37;95480.09;;;0.23;100.00
20119;BME280;10220;42.716;23.306;2023-01-29T05:13:05;95491.06;;;0.23;100.00
20119;BME280;10220;42.716;23.306;2023-01-29T05:15:37;95487.06;;;0.40;100.00
20119;BME280;10220;42.716;23.306;2023-01-29T05:18:04;95498.47;;;0.36;100.00
20119;BME280;10220;42.716;23.306;2023-01-29T05:20:34;95429.03;;;-0.04;100.00
20119;BME280;10220;42.716;23.306;2023-01-29T05:23:01;95493.91;;;0.30;100.00
20119;BME280;10220;42.716;23.306;2023-01-29T05:25:29;95492.59;;;0.35;100.00
20119;BME280;10220;42.716;23.306;2023-01-29T05:27:55;95479.44;;;0.40;100.00
20119;BME280;10220;42.716;23.306;2023-01-29T05:30:38;95506.13;;;0.26;100.00
20119;BME280;10220;42.716;23.306;2023-01-29T05:33:13;95503.41;;;0.37;100.00
20119;BME280;10220;42.716;23.306;2023-01-29T05:35:39;95491.25;;;0.41;100.00
20119;BME280;10220;42.716;23.306;2023-01-29T05:38:05;95506.78;;;0.38;100.00
20119;BME280;10220;42.716;23.306;2023-01-29T05:40:30;95472.59;;;0.12;100.00
20119;BME280;10220;42.716;23.306;2023-01-29T05:42:56;95449.53;;;-0.05;100.00
20119;BME280;10220;42.716;23.306;2023-01-29T05:45:21;95509.44;;;0.36;100.00
20119;BME280;10220;42.716;23.306;2023-01-29T05:47:47;95445.50;;;-0.08;100.00
20119;BME280;10220;42.716;23.306;2023-01-29T05:50:13;95514.28;;;0.30;100.00
20119;BME280;10220;42.716;23.306;2023-01-29T05:52:39;95522.19;;;0.36;100.00
20119;BME280;10220;42.716;23.306;2023-01-29T05:55:06;95512.13;;;0.35;100.00
20119;BME280;10220;42.716;23.306;2023-01-29T05:57:32;95520.84;;;0.32;100.00
20119;BME280;10220;42.716;23.306;2023-01-29T05:59:57;95510.25;;;0.18;100.00
20119;BME280;10220;42.716;23.306;2023-01-29T06:02:23;95523.25;;;0.24;100.00
20119;BME280;10220;42.716;23.306;2023-01-29T06:04:50;95526.63;;;0.25;100.00
20119;BME280;10220;42.716;23.306;2023-01-29T06:07:17;95471.50;;;-0.04;100.00
20119;BME280;10220;42.716;23.306;2023-01-29T06:09:42;95444.00;;;-0.29;100.00
20119;BME280;10220;42.716;23.306;2023-01-29T06:12:07;95542.41;;;0.28;100.00
20119;BME280;10220;42.716;23.306;2023-01-29T06:14:33;95540.69;;;0.29;100.00
20119;BME280;10220;42.716;23.306;2023-01-29T06:16:58;95542.56;;;0.36;100.00
20119;BME280;10220;42.716;23.306;2023-01-29T06:19:24;95546.19;;;0.43;100.00
20119;BME280;10220;42.716;23.306;2023-01-29T06:21:49;95501.75;;;-0.11;100.00
20119;BME280;10220;42.716;23.306;2023-01-29T06:24:15;95545.66;;;0.30;100.00
20119;BME280;10220;42.716;23.306;2023-01-29T06:26:40;95551.38;;;0.23;100.00
20119;BME280;10220;42.716;23.306;2023-01-29T06:29:05;95558.38;;;0.30;100.00
20119;BME280;10220;42.716;23.306;2023-01-29T06:31:31;95549.13;;;0.20;100.00
20119;BME280;10220;42.716;23.306;2023-01-29T06:33:56;95564.81;;;0.34;100.00
20119;BME280;10220;42.716;23.306;2023-01-29T06:36:22;95560.50;;;0.16;100.00
20119;BME280;10220;42.716;23.306;2023-01-29T06:38:47;95570.00;;;0.23;100.00
20119;BME280;10220;42.716;23.306;2023-01-29T06:41:16;95562.13;;;0.26;100.00
20119;BME280;10220;42.716;23.306;2023-01-29T06:43:44;95573.38;;;0.33;100.00
20119;BME280;10220;42.716;23.306;2023-01-29T06:46:09;95568.97;;;0.35;100.00
20119;BME280;10220;42.716;23.306;2023-01-29T06:48:35;95567.50;;;0.33;100.00
20119;BME280;10220;42.716;23.306;2023-01-29T06:51:10;95568.28;;;0.33;100.00
20119;BME280;10220;42.716;23.306;2023-01-29T06:53:36;95571.50;;;0.26;100.00
20119;BME280;10220;42.716;23.306;2023-01-29T06:56:03;95547.66;;;0.27;100.00
20119;BME280;10220;42.716;23.306;2023-01-29T06:58:29;95517.19;;;-0.03;100.00
20119;BME280;10220;42.716;23.306;2023-01-29T07:01:05;95496.94;;;-0.14;100.00
20119;BME280;10220;42.716;23.306;2023-01-29T07:03:31;95581.03;;;0.43;100.00
20119;BME280;10220;42.716;23.306;2023-01-29T07:05:56;95584.28;;;0.54;100.00
20119;BME280;10220;42.716;23.306;2023-01-29T07:08:22;95576.91;;;0.42;100.00
20119;BME280;10220;42.716;23.306;2023-01-29T07:10:48;95586.16;;;0.52;100.00
20119;BME280;10220;42.716;23.306;2023-01-29T07:13:14;95529.00;;;0.17;100.00
20119;BME280;10220;42.716;23.306;2023-01-29T07:15:39;95538.91;;;0.10;100.00
20119;BME280;10220;42.716;23.306;2023-01-29T07:18:04;95592.69;;;0.45;100.00
20119;BME280;10220;42.716;23.306;2023-01-29T07:20:40;95602.88;;;0.45;100.00
20119;BME280;10220;42.716;23.306;2023-01-29T07:23:06;95546.06;;;0.35;100.00
20119;BME280;10220;42.716;23.306;2023-01-29T07:25:33;95612.78;;;0.39;100.00
20119;BME280;10220;42.716;23.306;2023-01-29T07:28:02;95594.88;;;0.50;100.00
20119;BME280;10220;42.716;23.306;2023-01-29T07:30:28;95583.56;;;0.24;100.00
20119;BME280;10220;42.716;23.306;2023-01-29T07:32:54;95611.09;;;0.49;100.00
20119;BME280;10220;42.716;23.306;2023-01-29T07:35:19;95609.03;;;0.43;100.00
20119;BME280;10220;42.716;23.306;2023-01-29T07:37:49;95536.06;;;-0.05;100.00
20119;BME280;10220;42.716;23.306;2023-01-29T07:40:14;95601.41;;;0.43;100.00
20119;BME280;10220;42.716;23.306;2023-01-29T07:42:40;95610.00;;;0.51;100.00
20119;BME280;10220;42.716;23.306;2023-01-29T07:45:09;95613.06;;;0.45;100.00
20119;BME280;10220;42.716;23.306;2023-01-29T07:47:35;95610.28;;;0.67;100.00
20119;BME280;10220;42.716;23.306;2023-01-29T07:50:01;95550.97;;;0.08;100.00
20119;BME280;10220;42.716;23.306;2023-01-29T07:52:28;95607.06;;;0.46;100.00
20119;BME280;10220;42.716;23.306;2023-01-29T07:54:54;95600.75;;;0.59;100.00
20119;BME280;10220;42.716;23.306;2023-01-29T07:57:19;95609.75;;;0.54;100.00
20119;BME280;10220;42.716;23.306;2023-01-29T07:59:44;95585.59;;;0.39;100.00
20119;BME280;10220;42.716;23.306;2023-01-29T08:02:10;95594.72;;;0.42;100.00
20119;BME280;10220;42.716;23.306;2023-01-29T08:04:36;95611.78;;;0.60;100.00
20119;BME280;10220;42.716;23.306;2023-01-29T08:07:01;95574.94;;;0.15;100.00
20119;BME280;10220;42.716;23.306;2023-01-29T08:09:29;95616.84;;;0.51;100.00
20119;BME280;10220;42.716;23.306;2023-01-29T08:11:55;95584.13;;;0.27;100.00
20119;BME280;10220;42.716;23.306;2023-01-29T08:14:21;95593.38;;;0.57;100.00
20119;BME280;10220;42.716;23.306;2023-01-29T08:16:46;95636.84;;;0.74;100.00
20119;BME280;10220;42.716;23.306;2023-01-29T08:19:12;95636.75;;;0.85;100.00
20119;BME280;10220;42.716;23.306;2023-01-29T08:21:37;95626.13;;;0.70;100.00
20119;BME280;10220;42.716;23.306;2023-01-29T08:24:03;95627.88;;;0.89;100.00
20119;BME280;10220;42.716;23.306;2023-01-29T08:26:28;95578.63;;;0.51;100.00
20119;BME280;10220;42.716;23.306;2023-01-29T08:28:54;95624.78;;;0.85;100.00
20119;BME280;10220;42.716;23.306;2023-01-29T08:31:19;95637.94;;;0.90;100.00
20119;BME280;10220;42.716;23.306;2023-01-29T08:33:45;95599.81;;;0.60;100.00
20119;BME280;10220;42.716;23.306;2023-01-29T08:36:11;95585.06;;;0.45;100.00
20119;BME280;10220;42.716;23.306;2023-01-29T08:38:36;95600.09;;;0.57;100.00
20119;BME280;10220;42.716;23.306;2023-01-29T08:41:02;95645.84;;;0.78;100.00
20119;BME280;10220;42.716;23.306;2023-01-29T08:43:27;95599.91;;;0.40;100.00
20119;BME280;10220;42.716;23.306;2023-01-29T08:45:53;95658.47;;;0.79;100.00
20119;BME280;10220;42.716;23.306;2023-01-29T08:48:18;95585.88;;;0.46;100.00
20119;BME280;10220;42.716;23.306;2023-01-29T08:50:44;95656.06;;;0.87;100.00
20119;BME280;10220;42.716;23.306;2023-01-29T08:53:09;95597.94;;;0.53;100.00
20119;BME280;10220;42.716;23.306;2023-01-29T08:55:36;95665.97;;;0.90;100.00
20119;BME280;10220;42.716;23.306;2023-01-29T08:58:03;95676.22;;;1.09;100.00
20119;BME280;10220;42.716;23.306;2023-01-29T09:00:30;95608.97;;;0.82;100.00
20119;BME280;10220;42.716;23.306;2023-01-29T09:02:55;95654.59;;;0.85;100.00
20119;BME280;10220;42.716;23.306;2023-01-29T09:05:21;95666.50;;;0.84;100.00
20119;BME280;10220;42.716;23.306;2023-01-29T09:07:46;95672.16;;;0.78;100.00
20119;BME280;10220;42.716;23.306;2023-01-29T09:10:12;95674.31;;;0.92;100.00
20119;BME280;10220;42.716;23.306;2023-01-29T09:12:37;95599.56;;;0.63;100.00
20119;BME280;10220;42.716;23.306;2023-01-29T09:15:03;95604.78;;;0.53;100.00
20119;BME280;10220;42.716;23.306;2023-01-29T09:17:28;95635.25;;;0.82;100.00
20119;BME280;10220;42.716;23.306;2023-01-29T09:19:54;95655.53;;;1.21;100.00
20119;BME280;10220;42.716;23.306;2023-01-29T09:22:19;95654.88;;;1.19;100.00
20119;BME280;10220;42.716;23.306;2023-01-29T09:24:44;95656.06;;;1.06;100.00
20119;BME280;10220;42.716;23.306;2023-01-29T09:27:10;95640.75;;;1.15;100.00
20119;BME280;10220;42.716;23.306;2023-01-29T09:29:36;95633.66;;;1.10;100.00
20119;BME280;10220;42.716;23.306;2023-01-29T09:32:04;95665.72;;;1.12;100.00
20119;BME280;10220;42.716;23.306;2023-01-29T09:34:30;95647.88;;;1.12;100.00
20119;BME280;10220;42.716;23.306;2023-01-29T09:36:55;95654.59;;;1.22;100.00
20119;BME280;10220;42.716;23.306;2023-01-29T09:39:21;95642.50;;;1.15;100.00
20119;BME280;10220;42.716;23.306;2023-01-29T09:44:48;95641.28;;;0.91;100.00
20119;BME280;10220;42.716;23.306;2023-01-29T09:47:17;95650.97;;;1.06;100.00
20119;BME280;10220;42.716;23.306;2023-01-29T09:49:49;95653.38;;;0.79;100.00
20119;BME280;10220;42.716;23.306;2023-01-29T09:52:32;95637.94;;;0.81;100.00
20119;BME280;10220;42.716;23.306;2023-01-29T09:57:40;95648.66;;;1.22;100.00
20119;BME280;10220;42.716;23.306;2023-01-29T10:00:25;95650.03;;;1.16;100.00
20119;BME280;10220;42.716;23.306;2023-01-29T10:03:19;95636.88;;;1.30;100.00
20119;BME280;10220;42.716;23.306;2023-01-29T10:11:44;95627.75;;;1.18;100.00
20119;BME280;10220;42.716;23.306;2023-01-29T10:14:22;95630.84;;;1.03;100.00
20119;BME280;10220;42.716;23.306;2023-01-29T10:20:05;95634.84;;;0.77;100.00
20119;BME280;10220;42.716;23.306;2023-01-29T10:25:19;95626.81;;;0.82;100.00
20119;BME280;10220;42.716;23.306;2023-01-29T10:27:48;95590.44;;;0.52;100.00
20119;BME280;10220;42.716;23.306;2023-01-29T10:33:28;95624.13;;;0.83;100.00
20119;BME280;10220;42.716;23.306;2023-01-29T10:36:00;95567.38;;;0.44;100.00
20119;BME280;10220;42.716;23.306;2023-01-29T10:41:29;95604.69;;;0.82;100.00
20119;BME280;10220;42.716;23.306;2023-01-29T10:44:19;95623.06;;;0.86;100.00
20119;BME280;10220;42.716;23.306;2023-01-29T10:46:57;95614.31;;;0.88;100.00
20119;BME280;10220;42.716;23.306;2023-01-29T10:52:23;95621.97;;;1.07;100.00
20119;BME280;10220;42.716;23.306;2023-01-29T10:55:23;95600.38;;;1.02;100.00
20119;BME280;10220;42.716;23.306;2023-01-29T11:00:48;95546.19;;;0.53;100.00
20119;BME280;10220;42.716;23.306;2023-01-29T11:03:26;95580.78;;;0.74;100.00
20119;BME280;10220;42.716;23.306;2023-01-29T11:06:12;95595.69;;;0.88;100.00
20119;BME280;10220;42.716;23.306;2023-01-29T11:09:24;95587.09;;;0.89;100.00
20119;BME280;10220;42.716;23.306;2023-01-29T11:11:48;95607.63;;;0.87;100.00
20119;BME280;10220;42.716;23.306;2023-01-29T11:14:24;95530.50;;;0.48;100.00
20119;BME280;10220;42.716;23.306;2023-01-29T11:16:51;95587.22;;;0.78;100.00
20119;BME280;10220;42.716;23.306;2023-01-29T11:19:39;95596.88;;;0.93;100.00
20119;BME280;10220;42.716;23.306;2023-01-29T11:22:12;95608.72;;;0.75;100.00
20119;BME280;10220;42.716;23.306;2023-01-29T11:24:38;95589.78;;;0.87;100.00
20119;BME280;10220;42.716;23.306;2023-01-29T11:27:14;95585.75;;;0.94;100.00
20119;BME280;10220;42.716;23.306;2023-01-29T11:29:42;95572.47;;;0.91;100.00
20119;BME280;10220;42.716;23.306;2023-01-29T11:32:13;95585.63;;;0.96;100.00
20119;BME280;10220;42.716;23.306;2023-01-29T11:37:31;95558.66;;;1.12;100.00
20119;BME280;10220;42.716;23.306;2023-01-29T11:39:57;95501.38;;;0.88;100.00
20119;BME280;10220;42.716;23.306;2023-01-29T11:42:22;95566.81;;;1.06;100.00
20119;BME280;10220;42.716;23.306;2023-01-29T11:44:48;95557.69;;;1.04;100.00
20119;BME280;10220;42.716;23.306;2023-01-29T11:49:56;95562.09;;;1.20;100.00
20119;BME280;10220;42.716;23.306;2023-01-29T11:52:39;95547.72;;;1.38;100.00
20119;BME280;10220;42.716;23.306;2023-01-29T11:55:15;95547.31;;;1.33;100.00
20119;BME280;10220;42.716;23.306;2023-01-29T11:57:45;95546.91;;;1.38;100.00
20119;BME280;10220;42.716;23.306;2023-01-29T12:00:35;95540.50;;;1.61;100.00
20119;BME280;10220;42.716;23.306;2023-01-29T12:03:21;95505.97;;;1.39;100.00
20119;BME280;10220;42.716;23.306;2023-01-29T12:05:59;95541.66;;;1.39;100.00
20119;BME280;10220;42.716;23.306;2023-01-29T12:08:29;95502.25;;;1.15;100.00
20119;BME280;10220;42.716;23.306;2023-01-29T12:13:34;95548.13;;;1.24;100.00
20119;BME280;10220;42.716;23.306;2023-01-29T12:16:16;95583.72;;;1.16;100.00
20119;BME280;10220;42.716;23.306;2023-01-29T12:18:49;95552.88;;;1.19;100.00
20119;BME280;10220;42.716;23.306;2023-01-29T12:21:28;95540.88;;;1.29;100.00
20119;BME280;10220;42.716;23.306;2023-01-29T12:27:34;95542.56;;;1.48;100.00
20119;BME280;10220;42.716;23.306;2023-01-29T12:32:55;95546.09;;;1.47;100.00
20119;BME280;10220;42.716;23.306;2023-01-29T12:35:30;95536.38;;;1.50;100.00
20119;BME280;10220;42.716;23.306;2023-01-29T12:38:07;95486.88;;;0.98;100.00
20119;BME280;10220;42.716;23.306;2023-01-29T12:40:52;95501.06;;;1.10;100.00
20119;BME280;10220;42.716;23.306;2023-01-29T12:43:25;95529.84;;;1.38;100.00
20119;BME280;10220;42.716;23.306;2023-01-29T12:45:56;95517.94;;;1.29;100.00
20119;BME280;10220;42.716;23.306;2023-01-29T12:48:26;95534.50;;;1.52;100.00
20119;BME280;10220;42.716;23.306;2023-01-29T12:50:57;95490.72;;;1.11;100.00
20119;BME280;10220;42.716;23.306;2023-01-29T12:53:44;95535.03;;;1.56;100.00
20119;BME280;10220;42.716;23.306;2023-01-29T12:56:17;95547.66;;;1.48;100.00
20119;BME280;10220;42.716;23.306;2023-01-29T12:58:47;95559.06;;;1.53;100.00
20119;BME280;10220;42.716;23.306;2023-01-29T13:01:18;95544.97;;;1.59;100.00
20119;BME280;10220;42.716;23.306;2023-01-29T13:06:25;95539.88;;;1.49;100.00
20119;BME280;10220;42.716;23.306;2023-01-29T13:09:07;95470.88;;;1.05;100.00
20119;BME280;10220;42.716;23.306;2023-01-29T13:12:21;95530.38;;;1.42;100.00
20119;BME280;10220;42.716;23.306;2023-01-29T13:17:23;95556.25;;;1.56;100.00
20119;BME280;10220;42.716;23.306;2023-01-29T13:19:53;95567.47;;;1.36;100.00
20119;BME280;10220;42.716;23.306;2023-01-29T13:22:25;95535.59;;;1.50;100.00
20119;BME280;10220;42.716;23.306;2023-01-29T13:24:52;95561.41;;;1.47;100.00
20119;BME280;10220;42.716;23.306;2023-01-29T13:27:28;95557.13;;;1.38;100.00
20119;BME280;10220;42.716;23.306;2023-01-29T13:29:55;95565.28;;;1.51;100.00
20119;BME280;10220;42.716;23.306;2023-01-29T13:32:24;95553.38;;;1.69;100.00
20119;BME280;10220;42.716;23.306;2023-01-29T13:34:54;95501.94;;;1.37;100.00
20119;BME280;10220;42.716;23.306;2023-01-29T13:39:49;95567.22;;;1.66;100.00
20119;BME280;10220;42.716;23.306;2023-01-29T13:42:22;95560.63;;;1.73;100.00
20119;BME280;10220;42.716;23.306;2023-01-29T13:44:50;95519.00;;;1.36;100.00
20119;BME280;10220;42.716;23.306;2023-01-29T13:47:26;95568.63;;;1.51;100.00
20119;BME280;10220;42.716;23.306;2023-01-29T13:52:34;95569.50;;;1.69;100.00
20119;BME280;10220;42.716;23.306;2023-01-29T13:55:07;95580.56;;;1.60;100.00
20119;BME280;10220;42.716;23.306;2023-01-29T14:00:03;95575.47;;;1.51;100.00
20119;BME280;10220;42.716;23.306;2023-01-29T14:02:29;95585.75;;;1.22;100.00
20119;BME280;10220;42.716;23.306;2023-01-29T14:10:38;95567.09;;;1.03;100.00
20119;BME280;10220;42.716;23.306;2023-01-29T14:15:37;95580.88;;;1.38;100.00
20119;BME280;10220;42.716;23.306;2023-01-29T14:18:05;95577.63;;;1.46;100.00
20119;BME280;10220;42.716;23.306;2023-01-29T14:26:02;95597.56;;;1.23;100.00
20119;BME280;10220;42.716;23.306;2023-01-29T14:28:30;95562.03;;;0.94;100.00
20119;BME280;10220;42.716;23.306;2023-01-29T14:30:57;95583.22;;;1.13;100.00
20119;BME280;10220;42.716;23.306;2023-01-29T14:35:57;95551.03;;;0.84;100.00
20119;BME280;10220;42.716;23.306;2023-01-29T14:38:25;95617.81;;;1.15;100.00
20119;BME280;10220;42.716;23.306;2023-01-29T14:41:06;95614.47;;;1.06;100.00
20119;BME280;10220;42.716;23.306;2023-01-29T14:43:34;95581.06;;;0.71;100.00
20119;BME280;10220;42.716;23.306;2023-01-29T14:49:06;95614.06;;;1.01;100.00
20119;BME280;10220;42.716;23.306;2023-01-29T14:51:35;95547.66;;;0.64;100.00
20119;BME280;10220;42.716;23.306;2023-01-29T14:54:05;95596.63;;;0.87;100.00
20119;BME280;10220;42.716;23.306;2023-01-29T14:56:48;95619.16;;;1.01;100.00
20119;BME280;10220;42.716;23.306;2023-01-29T15:02:21;95584.00;;;0.95;100.00
20119;BME280;10220;42.716;23.306;2023-01-29T15:04:53;95554.25;;;0.57;100.00
20119;BME280;10220;42.716;23.306;2023-01-29T15:10:19;95595.03;;;0.95;100.00
20119;BME280;10220;42.716;23.306;2023-01-29T15:15:45;95615.81;;;1.00;100.00
20119;BME280;10220;42.716;23.306;2023-01-29T15:20:43;95594.06;;;0.77;100.00